createdAt,value
2019-02-12T00:00:25.174Z,4.53
2019-02-12T00:02:58.464Z,3.80
2019-02-12T00:05:32.446Z,3.20
2019-02-12T00:08:05.696Z,3.53
2019-02-12T00:10:38.996Z,3.60
2019-02-12T00:13:12.254Z,4.30
2019-02-12T00:15:45.543Z,3.50
2019-02-12T00:18:18.830Z,3.97
2019-02-12T00:20:52.103Z,3.83
2019-02-12T00:23:25.400Z,4.30
2019-02-12T00:25:58.921Z,4.43
2019-02-12T00:28:32.205Z,4.53
2019-02-12T00:31:07.024Z,4.20
2019-02-12T00:33:40.311Z,4.03
2019-02-12T00:36:14.164Z,3.60
2019-02-12T00:38:47.472Z,3.60
2019-02-12T00:41:20.749Z,3.37
2019-02-12T00:43:54.048Z,4.03
2019-02-12T00:46:27.337Z,4.23
2019-02-12T00:49:00.617Z,4.20
2019-02-12T00:51:33.922Z,4.23
2019-02-12T00:54:07.220Z,3.60
2019-02-12T00:56:42.116Z,4.20
2019-02-12T00:59:15.416Z,4.20
2019-02-12T01:01:48.683Z,3.50
2019-02-12T01:04:21.964Z,3.57
2019-02-12T01:06:55.237Z,4.13
2019-02-12T01:09:28.537Z,8.13
2019-02-12T01:12:01.891Z,9.83
2019-02-12T01:14:36.083Z,6.67
2019-02-12T01:17:09.374Z,6.53
2019-02-12T01:19:43.223Z,6.53
2019-02-12T01:22:16.512Z,4.57
2019-02-12T01:24:49.931Z,9.57
2019-02-12T01:27:23.209Z,8.87
2019-02-12T01:29:56.485Z,6.83
2019-02-12T01:32:29.776Z,3.90
2019-02-12T01:35:03.067Z,3.93
2019-02-12T01:37:36.336Z,3.93
2019-02-12T01:40:11.675Z,3.73
2019-02-12T01:42:44.949Z,3.73
2019-02-12T01:45:18.247Z,3.40
2019-02-12T01:47:52.374Z,3.80
2019-02-12T01:50:25.659Z,3.97
2019-02-12T01:52:58.945Z,4.00
2019-02-12T01:55:32.229Z,3.77
2019-02-12T01:58:05.549Z,3.93
2019-02-12T02:00:38.898Z,3.90
2019-02-12T02:03:12.185Z,3.70
2019-02-12T02:05:45.449Z,5.90
2019-02-12T02:08:18.754Z,5.90
2019-02-12T02:10:53.645Z,3.23
2019-02-12T02:13:27.613Z,4.27
2019-02-12T02:16:00.877Z,4.23
2019-02-12T02:18:34.180Z,4.00
2019-02-12T02:21:07.452Z,3.87
2019-02-12T02:23:40.769Z,4.00
2019-02-12T02:26:14.256Z,4.10
2019-02-12T02:28:47.552Z,4.67
2019-02-12T02:31:20.818Z,4.50
2019-02-12T02:33:55.075Z,3.70
2019-02-12T02:36:28.373Z,4.27
2019-02-12T02:39:01.644Z,4.17
2019-02-12T02:41:35.142Z,3.73
2019-02-12T02:44:08.453Z,3.77
2019-02-12T02:46:41.739Z,3.70
2019-02-12T02:49:15.034Z,4.60
2019-02-12T02:51:54.056Z,4.60
2019-02-12T02:54:23.337Z,4.27
2019-02-12T02:56:56.616Z,3.90
2019-02-12T02:59:29.926Z,4.10
2019-02-12T03:02:04.475Z,3.97
2019-02-12T03:04:38.316Z,4.47
2019-02-12T03:07:11.582Z,4.23
2019-02-12T03:09:44.872Z,4.37
2019-02-12T03:12:18.138Z,4.40
2019-02-12T03:14:51.431Z,4.20
2019-02-12T03:17:24.728Z,4.60
2019-02-12T03:19:58.007Z,4.03
2019-02-12T03:22:32.916Z,3.93
2019-02-12T03:25:08.344Z,4.27
2019-02-12T03:27:41.627Z,4.33
2019-02-12T03:30:14.909Z,4.77
2019-02-12T03:32:48.182Z,4.23
2019-02-12T03:35:21.471Z,4.50
2019-02-12T03:37:54.746Z,4.10
2019-02-12T03:40:28.036Z,4.53
2019-02-12T03:43:02.542Z,4.27
2019-02-12T03:45:35.909Z,4.07
2019-02-12T03:48:09.179Z,4.33
2019-02-12T03:50:42.492Z,4.10
2019-02-12T03:53:15.782Z,4.17
2019-02-12T03:55:49.134Z,5.67
2019-02-12T03:58:22.403Z,4.37
2019-02-12T04:00:55.691Z,4.17
2019-02-12T04:03:29.989Z,3.90
2019-02-12T04:06:03.300Z,4.43
2019-02-12T04:08:36.566Z,4.17
2019-02-12T04:11:09.672Z,4.97
2019-02-12T04:13:42.949Z,4.13
2019-02-12T04:16:16.259Z,4.13
2019-02-12T04:18:49.544Z,4.63
2019-02-12T04:21:24.468Z,4.73
2019-02-12T04:23:57.740Z,4.57
2019-02-12T04:26:31.038Z,4.30
2019-02-12T04:29:05.553Z,4.13
2019-02-12T04:31:40.419Z,4.73
2019-02-12T04:34:13.685Z,4.60
2019-02-12T04:36:46.970Z,4.37
2019-02-12T04:39:20.224Z,4.30
2019-02-12T04:41:53.540Z,4.70
2019-02-12T04:44:26.812Z,4.77
2019-02-12T04:47:00.104Z,4.40
2019-02-12T04:49:33.376Z,5.90
2019-02-12T04:52:06.673Z,7.40
2019-02-12T04:54:41.506Z,4.90
2019-02-12T04:57:14.817Z,6.07
2019-02-12T04:59:48.094Z,5.80
2019-02-12T05:02:21.402Z,4.50
2019-02-12T05:04:54.676Z,4.53
2019-02-12T05:07:27.978Z,5.37
2019-02-12T05:10:01.268Z,5.27
2019-02-12T05:12:34.599Z,5.77
2019-02-12T05:15:09.419Z,4.73
2019-02-12T05:17:42.723Z,4.53
2019-02-12T05:20:16.008Z,4.47
2019-02-12T05:22:49.308Z,4.47
2019-02-12T05:25:22.588Z,5.13
2019-02-12T05:27:55.867Z,5.33
2019-02-12T05:30:29.153Z,6.07
2019-02-12T05:33:02.453Z,5.57
2019-02-12T05:35:36.747Z,5.73
2019-02-12T05:38:10.029Z,4.87
2019-02-12T05:40:43.311Z,5.33
2019-02-12T05:43:16.617Z,4.77
2019-02-12T05:45:49.903Z,5.10
2019-02-12T05:48:23.190Z,4.67
2019-02-12T05:50:56.483Z,4.60
2019-02-12T05:53:29.764Z,5.10
2019-02-12T05:56:03.539Z,4.77
2019-02-12T05:58:36.807Z,5.57
2019-02-12T06:01:10.113Z,4.70
2019-02-12T06:03:43.382Z,4.77
2019-02-12T06:06:17.251Z,5.03
2019-02-12T06:08:50.658Z,4.77
2019-02-12T06:11:24.017Z,4.70
2019-02-12T06:13:57.322Z,4.70
2019-02-12T06:16:30.575Z,4.93
2019-02-12T06:19:03.869Z,5.00
2019-02-12T06:21:37.229Z,5.20
2019-02-12T06:24:10.509Z,4.77
2019-02-12T06:26:43.782Z,5.03
2019-02-12T06:29:17.040Z,5.27
2019-02-12T06:31:50.335Z,5.33
2019-02-12T06:34:23.640Z,5.27
2019-02-12T06:36:56.932Z,5.00
2019-02-12T06:39:30.196Z,5.27
2019-02-12T06:42:03.507Z,5.57
2019-02-12T06:44:36.781Z,7.70
2019-02-12T06:47:10.077Z,5.47
2019-02-12T06:49:43.357Z,8.47
2019-02-12T06:52:18.284Z,6.07
2019-02-12T06:54:51.563Z,5.73
2019-02-12T06:57:24.878Z,5.90
2019-02-12T06:59:59.226Z,6.43
2019-02-12T07:03:08.861Z,5.70
2019-02-12T07:05:54.420Z,4.90
2019-02-12T07:08:39.489Z,5.13
2019-02-12T07:11:32.473Z,5.53
2019-02-12T07:14:11.607Z,4.37
2019-02-12T07:16:48.064Z,4.77
2019-02-12T07:19:27.297Z,3.90
2019-02-12T07:22:06.462Z,3.80
2019-02-12T07:24:47.529Z,4.17
2019-02-12T07:27:23.989Z,3.97
2019-02-12T07:30:32.301Z,4.63
2019-02-12T07:33:14.788Z,4.70
2019-02-12T07:36:06.066Z,4.13
2019-02-12T07:38:42.845Z,4.57
2019-02-12T07:41:21.790Z,4.40
2019-02-12T07:44:04.296Z,3.63
2019-02-12T07:46:55.718Z,3.73
2019-02-12T07:49:34.971Z,3.70
2019-02-12T07:52:43.367Z,3.80
2019-02-12T07:55:37.786Z,4.43
2019-02-12T07:58:23.326Z,3.80
2019-02-12T08:01:02.651Z,4.03
2019-02-12T08:03:58.689Z,5.57
2019-02-12T08:06:37.994Z,4.90
2019-02-12T08:09:27.190Z,5.10
2019-02-12T08:12:19.805Z,4.53
2019-02-12T08:15:22.203Z,4.23
2019-02-12T08:18:28.330Z,4.93
2019-02-12T08:21:19.960Z,4.20
2019-02-12T08:24:20.447Z,4.40
2019-02-12T08:27:08.274Z,3.87
2019-02-12T08:29:53.794Z,4.53
2019-02-12T08:32:42.012Z,4.73
2019-02-12T08:35:42.872Z,4.20
2019-02-12T08:38:37.725Z,4.93
2019-02-12T08:41:25.489Z,4.40
2019-02-12T08:44:21.702Z,4.07
2019-02-12T08:47:14.986Z,4.33
2019-02-12T08:50:14.046Z,4.20
2019-02-12T08:52:59.338Z,4.23
2019-02-12T08:55:52.552Z,4.60
2019-02-12T08:58:34.293Z,4.57
2019-02-12T09:01:16.573Z,4.90
2019-02-12T09:03:58.938Z,4.60
2019-02-12T09:06:53.345Z,4.17
2019-02-12T09:09:46.363Z,3.70
2019-02-12T09:12:51.928Z,3.97
2019-02-12T09:15:45.023Z,3.33
2019-02-12T09:18:42.399Z,3.43
2019-02-12T09:21:33.297Z,3.43
2019-02-12T09:24:27.698Z,3.37
2019-02-12T09:27:19.412Z,2.83
2019-02-12T09:30:04.906Z,3.30
2019-02-12T09:32:53.123Z,2.73
2019-02-12T09:35:32.457Z,3.27
2019-02-12T09:38:11.724Z,3.40
2019-02-12T09:41:00.409Z,2.70
2019-02-12T09:43:53.355Z,3.23
2019-02-12T09:46:41.813Z,2.77
2019-02-12T09:49:47.314Z,2.50
2019-02-12T09:52:57.097Z,1.80
2019-02-12T09:55:45.381Z,2.23
2019-02-12T09:58:53.579Z,2.40
2019-02-12T10:01:51.364Z,1.87
2019-02-12T10:04:36.624Z,2.20
2019-02-12T10:07:18.695Z,2.03
2019-02-12T10:10:19.569Z,2.40
2019-02-12T10:12:56.017Z,2.23
2019-02-12T10:15:54.005Z,2.80
2019-02-12T10:19:03.986Z,1.67
2019-02-12T10:21:40.414Z,2.37
2019-02-12T10:24:25.576Z,2.47
2019-02-12T10:27:22.926Z,2.30
2019-02-12T10:30:14.535Z,1.60
2019-02-12T10:32:47.812Z,2.27
2019-02-12T10:35:21.137Z,2.20
2019-02-12T10:37:54.417Z,2.67
2019-02-12T10:40:27.727Z,2.17
2019-02-12T10:43:01.001Z,2.20
2019-02-12T10:45:34.325Z,1.83
2019-02-12T10:48:07.577Z,2.17
2019-02-12T10:50:41.506Z,1.97
2019-02-12T10:53:14.711Z,1.87
2019-02-12T10:55:48.018Z,2.03
2019-02-12T10:58:21.283Z,1.83
2019-02-12T11:00:54.573Z,1.87
2019-02-12T11:03:27.896Z,2.10
2019-02-12T11:06:01.197Z,1.87
2019-02-12T11:08:34.285Z,2.57
2019-02-12T11:11:07.650Z,2.63
2019-02-12T11:13:40.932Z,2.00
2019-02-12T11:16:14.234Z,1.67
2019-02-12T11:18:47.509Z,2.47
2019-02-12T11:21:20.806Z,1.83
2019-02-12T11:23:54.070Z,1.90
2019-02-12T11:26:33.394Z,2.23
2019-02-12T11:29:07.625Z,1.73
2019-02-12T11:31:41.894Z,1.90
2019-02-12T11:34:15.169Z,1.70
2019-02-12T11:36:48.479Z,1.90
2019-02-12T11:39:21.835Z,2.60
2019-02-12T11:41:55.124Z,1.50
2019-02-12T11:44:28.402Z,1.80
2019-02-12T11:47:01.757Z,1.63
2019-02-12T11:49:35.049Z,1.70
2019-02-12T11:52:08.307Z,1.90
2019-02-12T11:54:43.685Z,1.70
2019-02-12T11:57:16.617Z,2.10
2019-02-12T11:59:50.385Z,1.90
2019-02-12T12:02:25.335Z,1.87
2019-02-12T12:04:58.598Z,1.97
2019-02-12T12:07:32.288Z,2.17
2019-02-12T12:10:08.570Z,2.30
2019-02-12T12:12:41.883Z,1.93
2019-02-12T12:15:15.968Z,1.83
2019-02-12T12:17:49.240Z,1.80
2019-02-12T12:20:22.504Z,2.00
2019-02-12T12:22:55.817Z,1.73
2019-02-12T12:25:29.079Z,1.90
2019-02-12T12:28:02.364Z,1.90
2019-02-12T12:30:35.666Z,2.63
2019-02-12T12:33:09.007Z,1.90
2019-02-12T12:35:42.320Z,1.87
2019-02-12T12:38:15.608Z,2.07
2019-02-12T12:40:48.935Z,2.00
2019-02-12T12:43:22.244Z,2.00
2019-02-12T12:45:55.534Z,2.20
2019-02-12T12:48:28.804Z,1.90
2019-02-12T12:51:02.130Z,1.90
2019-02-12T12:53:36.993Z,2.00
2019-02-12T12:56:10.268Z,1.43
2019-02-12T12:58:43.587Z,2.30
2019-02-12T13:01:16.843Z,1.70
2019-02-12T13:03:50.159Z,1.70
2019-02-12T13:06:23.519Z,1.80
2019-02-12T13:08:56.811Z,1.60
2019-02-12T13:11:30.090Z,1.70
2019-02-12T13:14:03.436Z,1.63
2019-02-12T13:16:38.352Z,1.80
2019-02-12T13:19:11.701Z,1.63
2019-02-12T13:21:45.020Z,2.07
2019-02-12T13:24:18.299Z,1.33
2019-02-12T13:26:51.601Z,1.50
2019-02-12T13:29:24.957Z,2.10
2019-02-12T13:31:58.253Z,1.63
2019-02-12T13:34:31.527Z,1.80
2019-02-12T13:37:04.843Z,1.80
2019-02-12T13:39:38.123Z,1.60
2019-02-12T13:42:11.483Z,1.50
2019-02-12T13:44:44.791Z,1.93
2019-02-12T13:47:18.082Z,1.73
2019-02-12T13:49:51.373Z,1.67
2019-02-12T13:52:24.665Z,1.50
2019-02-12T13:54:57.964Z,1.20
2019-02-12T13:57:31.256Z,1.90
2019-02-12T14:00:08.730Z,1.70
2019-02-12T14:02:42.045Z,1.40
2019-02-12T14:05:18.466Z,1.20
2019-02-12T14:07:51.748Z,1.37
2019-02-12T14:10:25.014Z,1.80
2019-02-12T14:12:58.316Z,1.03
2019-02-12T14:15:31.599Z,1.40
2019-02-12T14:18:05.036Z,1.30
2019-02-12T14:20:38.331Z,1.47
2019-02-12T14:23:11.626Z,1.47
2019-02-12T14:25:44.940Z,1.60
2019-02-12T14:28:18.224Z,1.50
2019-02-12T14:30:51.524Z,1.67
2019-02-12T14:33:24.799Z,1.37
2019-02-12T14:35:59.692Z,1.50
2019-02-12T14:38:32.814Z,1.67
2019-02-12T14:41:06.085Z,1.33
2019-02-12T14:43:39.379Z,1.50
2019-02-12T14:46:14.216Z,1.60
2019-02-12T14:48:47.505Z,1.40
2019-02-12T14:51:20.806Z,1.33
2019-02-12T14:53:54.185Z,1.67
2019-02-12T14:56:27.646Z,1.50
2019-02-12T14:59:00.935Z,1.40
2019-02-12T15:01:34.303Z,1.27
2019-02-12T15:04:07.593Z,1.40
2019-02-12T15:06:42.422Z,1.57
2019-02-12T15:09:15.745Z,1.20
2019-02-12T15:11:50.280Z,1.23
2019-02-12T15:14:23.675Z,1.30
2019-02-12T15:16:56.951Z,1.10
2019-02-12T15:19:30.270Z,1.03
2019-02-12T15:22:03.532Z,0.90
2019-02-12T15:24:36.861Z,1.27
2019-02-12T15:27:10.152Z,1.23
2019-02-12T15:29:44.232Z,1.50
2019-02-12T15:32:17.509Z,1.00
2019-02-12T15:34:50.810Z,1.27
2019-02-12T15:37:24.088Z,1.77
2019-02-12T15:39:57.484Z,2.07
2019-02-12T15:42:31.515Z,1.50
2019-02-12T15:45:10.413Z,1.40
2019-02-12T15:47:43.685Z,1.10
2019-02-12T15:50:17.069Z,1.20
2019-02-12T15:52:50.649Z,1.50
2019-02-12T15:55:23.956Z,1.63
2019-02-12T15:57:57.251Z,1.30
2019-02-12T16:00:30.537Z,1.50
2019-02-12T16:03:03.819Z,1.77
2019-02-12T16:05:37.137Z,2.60
2019-02-12T16:08:11.874Z,1.60
2019-02-12T16:10:46.097Z,1.40
2019-02-12T16:13:19.397Z,1.90
2019-02-12T16:15:52.693Z,1.60
2019-02-12T16:18:25.980Z,1.50
2019-02-12T16:20:59.351Z,1.50
2019-02-12T16:23:32.615Z,1.57
2019-02-12T16:26:05.975Z,1.40
2019-02-12T16:28:39.250Z,1.27
2019-02-12T16:31:12.544Z,1.50
2019-02-12T16:33:47.462Z,1.23
2019-02-12T16:36:20.784Z,1.90
2019-02-12T16:38:54.069Z,1.80
2019-02-12T16:41:27.374Z,2.13
2019-02-12T16:44:00.650Z,1.93
2019-02-12T16:46:33.931Z,1.50
2019-02-12T16:49:07.202Z,3.60
2019-02-12T16:51:40.480Z,1.73
2019-02-12T16:54:13.798Z,1.93
2019-02-12T16:56:47.086Z,2.30
2019-02-12T16:59:20.376Z,1.83
2019-02-12T17:01:54.528Z,1.97
2019-02-12T17:04:28.361Z,1.87
2019-02-12T17:07:01.642Z,1.70
2019-02-12T17:09:34.931Z,1.60
2019-02-12T17:12:08.204Z,2.53
2019-02-12T17:14:41.595Z,2.43
2019-02-12T17:17:14.883Z,2.53
2019-02-12T17:19:48.185Z,3.57
2019-02-12T17:22:21.558Z,1.83
2019-02-12T17:24:54.859Z,1.97
2019-02-12T17:27:28.200Z,2.23
2019-02-12T17:30:01.534Z,2.30
2019-02-12T17:32:34.805Z,2.00
2019-02-12T17:35:08.968Z,2.50
2019-02-12T17:37:42.314Z,2.57
2019-02-12T17:40:16.837Z,2.53
2019-02-12T17:42:50.208Z,2.17
2019-02-12T17:45:23.511Z,1.80
2019-02-12T17:47:58.278Z,2.27
2019-02-12T17:50:31.579Z,2.03
2019-02-12T17:53:04.855Z,1.87
2019-02-12T17:55:38.264Z,2.10
2019-02-12T17:58:13.071Z,2.67
2019-02-12T18:00:46.505Z,2.37
2019-02-12T18:03:19.799Z,3.13
2019-02-12T18:05:54.121Z,3.10
2019-02-12T18:08:27.415Z,3.47
2019-02-12T18:11:00.738Z,2.87
2019-02-12T18:13:34.026Z,2.83
2019-02-12T18:16:07.328Z,2.93
2019-02-12T18:18:41.695Z,3.97
2019-02-12T18:21:15.066Z,3.20
2019-02-12T18:23:48.360Z,3.70
2019-02-12T18:26:21.674Z,5.40
2019-02-12T18:28:54.942Z,9.07
2019-02-12T18:31:28.297Z,12.00
2019-02-12T18:34:01.590Z,11.50
2019-02-12T18:36:35.064Z,7.90
2019-02-12T18:39:08.404Z,7.87
2019-02-12T18:41:41.826Z,5.53
2019-02-12T18:44:15.109Z,5.07
2019-02-12T18:46:48.419Z,5.07
2019-02-12T18:49:21.725Z,5.13
2019-02-12T18:51:55.061Z,4.80
2019-02-12T18:54:28.360Z,5.33
2019-02-12T18:57:01.689Z,6.33
2019-02-12T18:59:35.019Z,5.20
2019-02-12T19:02:08.384Z,4.70
2019-02-12T19:04:41.739Z,4.30
2019-02-12T19:07:15.118Z,7.43
2019-02-12T19:09:48.395Z,3.97
2019-02-12T19:12:21.812Z,4.53
2019-02-12T19:14:55.104Z,4.63
2019-02-12T19:17:29.771Z,5.27
2019-02-12T19:20:03.020Z,6.43
2019-02-12T19:22:36.331Z,6.07
2019-02-12T19:25:10.642Z,6.13
2019-02-12T19:27:44.019Z,5.67
2019-02-12T19:30:17.354Z,5.97
2019-02-12T19:32:50.665Z,5.80
2019-02-12T19:35:23.946Z,5.87
2019-02-12T19:37:57.262Z,6.03
2019-02-12T19:40:30.621Z,5.87
2019-02-12T19:43:03.933Z,5.60
2019-02-12T19:45:37.238Z,5.70
2019-02-12T19:48:10.636Z,8.87
2019-02-12T19:50:44.103Z,7.73
2019-02-12T19:53:17.676Z,5.33
2019-02-12T19:55:51.388Z,9.03
2019-02-12T19:58:24.665Z,7.27
2019-02-12T20:00:58.797Z,6.93
2019-02-12T20:03:32.576Z,7.60
2019-02-12T20:06:06.659Z,6.07
2019-02-12T20:08:40.064Z,5.30
2019-02-12T20:11:13.351Z,5.70
2019-02-12T20:13:46.704Z,5.87
2019-02-12T20:16:19.975Z,5.90
2019-02-12T20:18:53.374Z,5.00
2019-02-12T20:21:26.704Z,4.20
2019-02-12T20:24:00.058Z,4.10
2019-02-12T20:26:33.346Z,4.30
2019-02-12T20:29:06.692Z,4.37
2019-02-12T20:31:39.972Z,4.50
2019-02-12T20:34:13.969Z,5.17
2019-02-12T20:36:48.013Z,5.10
2019-02-12T20:39:21.391Z,7.77
2019-02-12T20:41:54.704Z,12.87
2019-02-12T20:44:28.092Z,7.33
2019-02-12T20:47:01.470Z,8.97
2019-02-12T20:49:34.944Z,5.30
2019-02-12T20:52:08.172Z,9.27
2019-02-12T20:54:41.503Z,5.00
2019-02-12T20:57:15.514Z,5.07
2019-02-12T20:59:48.989Z,5.00
2019-02-12T21:02:24.095Z,5.13
2019-02-12T21:04:57.546Z,5.97
2019-02-12T21:07:30.926Z,5.80
2019-02-12T21:10:06.635Z,6.20
2019-02-12T21:12:40.031Z,6.83
2019-02-12T21:15:15.861Z,6.50
2019-02-12T21:17:49.221Z,7.83
2019-02-12T21:20:22.504Z,7.60
2019-02-12T21:22:56.725Z,7.00
2019-02-12T21:25:30.006Z,28.63
2019-02-12T21:28:03.381Z,8.43
2019-02-12T21:30:36.730Z,6.47
2019-02-12T21:33:10.140Z,7.10
2019-02-12T21:35:43.413Z,8.10
2019-02-12T21:38:17.591Z,6.83
2019-02-12T21:40:50.870Z,6.27
2019-02-12T21:43:24.557Z,5.83
2019-02-12T21:45:57.847Z,6.27
2019-02-12T21:48:31.148Z,6.70
2019-02-12T21:51:04.429Z,6.60
2019-02-12T21:53:37.755Z,6.47
2019-02-12T21:56:11.039Z,6.03
2019-02-12T21:58:44.425Z,6.10
2019-02-12T22:01:17.696Z,9.70
2019-02-12T22:03:51.109Z,5.97
2019-02-12T22:06:24.388Z,5.57
2019-02-12T22:08:57.682Z,6.03
2019-02-12T22:11:30.965Z,6.53
2019-02-12T22:14:04.271Z,5.47
2019-02-12T22:16:37.551Z,6.70
2019-02-12T22:19:10.928Z,6.53
2019-02-12T22:21:44.206Z,7.17
2019-02-12T22:24:17.503Z,6.73
2019-02-12T22:26:50.801Z,7.23
2019-02-12T22:29:24.090Z,7.23
2019-02-12T22:31:57.385Z,6.07
2019-02-12T22:34:30.688Z,6.30
2019-02-12T22:37:05.591Z,6.73
2019-02-12T22:39:39.022Z,6.67
2019-02-12T22:42:12.360Z,7.63
2019-02-12T22:44:45.668Z,8.10
2019-02-12T22:47:19.243Z,10.30
2019-02-12T22:49:52.618Z,9.33
2019-02-12T22:52:25.915Z,9.60
2019-02-12T22:54:59.202Z,7.50
2019-02-12T22:57:32.492Z,9.40
2019-02-12T23:00:26.081Z,8.50
2019-02-12T23:02:59.436Z,9.83
2019-02-12T23:05:32.733Z,9.40
2019-02-12T23:08:06.061Z,9.93
2019-02-12T23:10:39.371Z,9.63
2019-02-12T23:13:12.666Z,7.93
2019-02-12T23:15:46.020Z,9.13
2019-02-12T23:18:19.305Z,8.37
2019-02-12T23:20:52.600Z,8.20
2019-02-12T23:23:25.879Z,8.97
2019-02-12T23:25:59.189Z,8.10
2019-02-12T23:28:32.460Z,9.47
2019-02-12T23:31:05.776Z,9.77
2019-02-12T23:33:39.051Z,10.87
2019-02-12T23:36:12.504Z,8.53
2019-02-12T23:38:45.772Z,7.43
2019-02-12T23:41:19.085Z,8.40
2019-02-12T23:43:53.663Z,8.10
2019-02-12T23:46:26.968Z,9.27
2019-02-12T23:49:00.231Z,8.97
2019-02-12T23:51:33.565Z,8.80
2019-02-12T23:54:06.839Z,8.90
2019-02-12T23:56:40.177Z,9.17
2019-02-12T23:59:13.482Z,9.17
